sensor_id;sensor_type;location;lat;lon;timestamp;P1;durP1;ratioP1;P2;durP2;ratioP2
20635;SDS011;10477;43.198;27.916;2022-09-02T00:02:22;31.07;;;28.60;;
20635;SDS011;10477;43.198;27.916;2022-09-02T00:04:50;30.75;;;28.15;;
20635;SDS011;10477;43.198;27.916;2022-09-02T00:07:18;30.23;;;27.82;;
20635;SDS011;10477;43.198;27.916;2022-09-02T00:09:45;28.05;;;25.75;;
20635;SDS011;10477;43.198;27.916;2022-09-02T00:12:13;28.92;;;26.62;;
20635;SDS011;10477;43.198;27.916;2022-09-02T00:14:41;31.90;;;29.50;;
20635;SDS011;10477;43.198;27.916;2022-09-02T00:17:09;31.77;;;29.37;;
20635;SDS011;10477;43.198;27.916;2022-09-02T00:19:36;33.63;;;31.12;;
20635;SDS011;10477;43.198;27.916;2022-09-02T00:22:04;30.20;;;27.90;;
20635;SDS011;10477;43.198;27.916;2022-09-02T00:24:32;31.20;;;28.80;;
20635;SDS011;10477;43.198;27.916;2022-09-02T00:26:59;34.53;;;31.93;;
20635;SDS011;10477;43.198;27.916;2022-09-02T00:29:27;33.40;;;30.80;;
20635;SDS011;10477;43.198;27.916;2022-09-02T00:31:55;33.35;;;30.85;;
20635;SDS011;10477;43.198;27.916;2022-09-02T00:34:23;31.15;;;28.65;;
20635;SDS011;10477;43.198;27.916;2022-09-02T00:36:53;30.50;;;28.10;;
20635;SDS011;10477;43.198;27.916;2022-09-02T00:39:20;32.15;;;29.65;;
20635;SDS011;10477;43.198;27.916;2022-09-02T00:41:48;33.23;;;30.72;;
20635;SDS011;10477;43.198;27.916;2022-09-02T00:44:17;33.02;;;30.52;;
20635;SDS011;10477;43.198;27.916;2022-09-02T00:46:46;32.13;;;29.52;;
20635;SDS011;10477;43.198;27.916;2022-09-02T00:49:20;29.57;;;27.27;;
20635;SDS011;10477;43.198;27.916;2022-09-02T00:54:35;31.95;;;29.48;;
20635;SDS011;10477;43.198;27.916;2022-09-02T00:57:06;31.10;;;28.70;;
20635;SDS011;10477;43.198;27.916;2022-09-02T00:59:47;31.57;;;29.07;;
20635;SDS011;10477;43.198;27.916;2022-09-02T01:02:16;32.38;;;29.98;;
20635;SDS011;10477;43.198;27.916;2022-09-02T01:04:45;33.15;;;30.55;;
20635;SDS011;10477;43.198;27.916;2022-09-02T01:07:13;32.63;;;30.05;;
20635;SDS011;10477;43.198;27.916;2022-09-02T01:09:41;30.68;;;28.23;;
20635;SDS011;10477;43.198;27.916;2022-09-02T01:12:08;30.62;;;28.25;;
20635;SDS011;10477;43.198;27.916;2022-09-02T01:14:37;31.50;;;29.10;;
20635;SDS011;10477;43.198;27.916;2022-09-02T01:17:05;32.90;;;30.30;;
20635;SDS011;10477;43.198;27.916;2022-09-02T01:19:35;32.70;;;30.10;;
20635;SDS011;10477;43.198;27.916;2022-09-02T01:22:14;30.50;;;28.10;;
20635;SDS011;10477;43.198;27.916;2022-09-02T01:24:44;28.77;;;26.48;;
20635;SDS011;10477;43.198;27.916;2022-09-02T01:27:16;28.83;;;26.45;;
20635;SDS011;10477;43.198;27.916;2022-09-02T01:29:49;29.82;;;27.42;;
20635;SDS011;10477;43.198;27.916;2022-09-02T01:32:22;30.75;;;28.35;;
20635;SDS011;10477;43.198;27.916;2022-09-02T01:34:51;29.05;;;26.75;;
20635;SDS011;10477;43.198;27.916;2022-09-02T01:37:20;29.15;;;26.95;;
20635;SDS011;10477;43.198;27.916;2022-09-02T01:39:48;31.70;;;29.25;;
20635;SDS011;10477;43.198;27.916;2022-09-02T01:42:17;30.72;;;28.32;;
20635;SDS011;10477;43.198;27.916;2022-09-02T01:44:46;32.33;;;29.82;;
20635;SDS011;10477;43.198;27.916;2022-09-02T01:47:15;29.82;;;27.52;;
20635;SDS011;10477;43.198;27.916;2022-09-02T01:49:44;29.82;;;27.52;;
20635;SDS011;10477;43.198;27.916;2022-09-02T01:52:12;29.87;;;27.58;;
20635;SDS011;10477;43.198;27.916;2022-09-02T01:54:41;32.25;;;29.75;;
20635;SDS011;10477;43.198;27.916;2022-09-02T01:57:09;32.93;;;30.43;;
20635;SDS011;10477;43.198;27.916;2022-09-02T01:59:37;28.32;;;26.12;;
20635;SDS011;10477;43.198;27.916;2022-09-02T02:02:06;27.67;;;25.30;;
20635;SDS011;10477;43.198;27.916;2022-09-02T02:04:33;33.63;;;30.82;;
20635;SDS011;10477;43.198;27.916;2022-09-02T02:07:01;32.08;;;29.57;;
20635;SDS011;10477;43.198;27.916;2022-09-02T02:09:29;31.60;;;29.10;;
20635;SDS011;10477;43.198;27.916;2022-09-02T02:11:57;30.70;;;28.30;;
20635;SDS011;10477;43.198;27.916;2022-09-02T02:14:25;29.37;;;27.07;;
20635;SDS011;10477;43.198;27.916;2022-09-02T02:16:52;32.83;;;30.32;;
20635;SDS011;10477;43.198;27.916;2022-09-02T02:19:20;32.85;;;30.35;;
20635;SDS011;10477;43.198;27.916;2022-09-02T02:21:47;33.25;;;30.65;;
20635;SDS011;10477;43.198;27.916;2022-09-02T02:24:17;30.08;;;27.75;;
20635;SDS011;10477;43.198;27.916;2022-09-02T02:26:46;31.20;;;28.80;;
20635;SDS011;10477;43.198;27.916;2022-09-02T02:29:14;33.28;;;30.77;;
20635;SDS011;10477;43.198;27.916;2022-09-02T02:31:42;33.35;;;30.85;;
20635;SDS011;10477;43.198;27.916;2022-09-02T02:34:10;33.88;;;31.27;;
20635;SDS011;10477;43.198;27.916;2022-09-02T02:36:39;31.33;;;28.92;;
20635;SDS011;10477;43.198;27.916;2022-09-02T02:39:07;31.33;;;28.83;;
20635;SDS011;10477;43.198;27.916;2022-09-02T02:41:37;34.00;;;31.40;;
20635;SDS011;10477;43.198;27.916;2022-09-02T02:44:07;33.63;;;31.02;;
20635;SDS011;10477;43.198;27.916;2022-09-02T02:46:35;32.58;;;29.98;;
20635;SDS011;10477;43.198;27.916;2022-09-02T02:49:04;31.62;;;28.92;;
20635;SDS011;10477;43.198;27.916;2022-09-02T02:51:32;33.33;;;30.63;;
20635;SDS011;10477;43.198;27.916;2022-09-02T02:54:01;37.15;;;34.35;;
20635;SDS011;10477;43.198;27.916;2022-09-02T02:56:29;36.83;;;33.70;;
20635;SDS011;10477;43.198;27.916;2022-09-02T02:58:57;35.78;;;32.98;;
20635;SDS011;10477;43.198;27.916;2022-09-02T03:01:27;34.23;;;30.90;;
20635;SDS011;10477;43.198;27.916;2022-09-02T03:03:56;33.02;;;30.43;;
20635;SDS011;10477;43.198;27.916;2022-09-02T03:06:24;35.28;;;32.45;;
20635;SDS011;10477;43.198;27.916;2022-09-02T03:08:51;35.23;;;32.53;;
20635;SDS011;10477;43.198;27.916;2022-09-02T03:11:21;34.27;;;31.62;;
20635;SDS011;10477;43.198;27.916;2022-09-02T03:13:51;32.73;;;29.75;;
20635;SDS011;10477;43.198;27.916;2022-09-02T03:16:18;30.62;;;28.23;;
20635;SDS011;10477;43.198;27.916;2022-09-02T03:18:47;31.97;;;29.40;;
20635;SDS011;10477;43.198;27.916;2022-09-02T03:21:16;32.95;;;30.35;;
20635;SDS011;10477;43.198;27.916;2022-09-02T03:23:44;35.15;;;32.45;;
20635;SDS011;10477;43.198;27.916;2022-09-02T03:26:15;31.42;;;28.92;;
20635;SDS011;10477;43.198;27.916;2022-09-02T03:28:44;31.05;;;28.55;;
20635;SDS011;10477;43.198;27.916;2022-09-02T03:31:14;37.20;;;34.40;;
20635;SDS011;10477;43.198;27.916;2022-09-02T03:33:44;37.45;;;34.75;;
20635;SDS011;10477;43.198;27.916;2022-09-02T03:36:22;35.43;;;32.73;;
20635;SDS011;10477;43.198;27.916;2022-09-02T03:38:54;34.00;;;31.40;;
20635;SDS011;10477;43.198;27.916;2022-09-02T03:41:22;33.78;;;31.17;;
20635;SDS011;10477;43.198;27.916;2022-09-02T03:43:50;35.95;;;33.23;;
20635;SDS011;10477;43.198;27.916;2022-09-02T03:46:17;35.95;;;33.25;;
20635;SDS011;10477;43.198;27.916;2022-09-02T03:48:45;37.20;;;34.40;;
20635;SDS011;10477;43.198;27.916;2022-09-02T03:51:15;32.78;;;30.20;;
20635;SDS011;10477;43.198;27.916;2022-09-02T03:53:44;32.78;;;30.17;;
20635;SDS011;10477;43.198;27.916;2022-09-02T03:56:13;34.75;;;31.95;;
20635;SDS011;10477;43.198;27.916;2022-09-02T03:58:43;34.80;;;32.05;;
20635;SDS011;10477;43.198;27.916;2022-09-02T04:01:13;33.38;;;30.68;;
20635;SDS011;10477;43.198;27.916;2022-09-02T04:03:43;34.35;;;31.55;;
20635;SDS011;10477;43.198;27.916;2022-09-02T04:06:11;28.95;;;26.62;;
20635;SDS011;10477;43.198;27.916;2022-09-02T04:08:41;36.70;;;33.80;;
20635;SDS011;10477;43.198;27.916;2022-09-02T04:11:10;36.40;;;33.48;;
20635;SDS011;10477;43.198;27.916;2022-09-02T04:13:43;31.57;;;28.57;;
20635;SDS011;10477;43.198;27.916;2022-09-02T04:16:13;32.98;;;30.37;;
20635;SDS011;10477;43.198;27.916;2022-09-02T04:18:42;30.10;;;27.80;;
20635;SDS011;10477;43.198;27.916;2022-09-02T04:21:10;35.05;;;32.38;;
20635;SDS011;10477;43.198;27.916;2022-09-02T04:23:38;32.10;;;29.50;;
20635;SDS011;10477;43.198;27.916;2022-09-02T04:26:11;34.00;;;31.10;;
20635;SDS011;10477;43.198;27.916;2022-09-02T04:28:42;32.70;;;30.10;;
20635;SDS011;10477;43.198;27.916;2022-09-02T04:31:11;31.90;;;29.40;;
20635;SDS011;10477;43.198;27.916;2022-09-02T04:33:40;33.78;;;31.27;;
20635;SDS011;10477;43.198;27.916;2022-09-02T04:36:09;33.98;;;31.37;;
20635;SDS011;10477;43.198;27.916;2022-09-02T04:38:39;31.62;;;29.12;;
20635;SDS011;10477;43.198;27.916;2022-09-02T04:41:12;30.43;;;28.02;;
20635;SDS011;10477;43.198;27.916;2022-09-02T04:43:41;33.83;;;31.23;;
20635;SDS011;10477;43.198;27.916;2022-09-02T04:46:12;32.30;;;29.70;;
20635;SDS011;10477;43.198;27.916;2022-09-02T04:48:42;34.25;;;31.55;;
20635;SDS011;10477;43.198;27.916;2022-09-02T04:51:26;33.18;;;30.57;;
20635;SDS011;10477;43.198;27.916;2022-09-02T04:53:56;34.03;;;31.12;;
20635;SDS011;10477;43.198;27.916;2022-09-02T04:56:26;38.67;;;35.68;;
20635;SDS011;10477;43.198;27.916;2022-09-02T04:58:57;32.40;;;29.60;;
20635;SDS011;10477;43.198;27.916;2022-09-02T05:01:35;32.00;;;29.35;;
20635;SDS011;10477;43.198;27.916;2022-09-02T05:03:59;30.15;;;27.55;;
20635;SDS011;10477;43.198;27.916;2022-09-02T05:06:44;29.37;;;26.85;;
20635;SDS011;10477;43.198;27.916;2022-09-02T05:09:15;38.08;;;35.17;;
20635;SDS011;10477;43.198;27.916;2022-09-02T05:11:45;38.60;;;35.60;;
20635;SDS011;10477;43.198;27.916;2022-09-02T05:14:16;37.05;;;34.05;;
20635;SDS011;10477;43.198;27.916;2022-09-02T05:17:20;28.77;;;26.30;;
20635;SDS011;10477;43.198;27.916;2022-09-02T05:23:31;34.05;;;31.30;;
20635;SDS011;10477;43.198;27.916;2022-09-02T05:26:22;34.53;;;31.27;;
20635;SDS011;10477;43.198;27.916;2022-09-02T05:31:18;28.95;;;26.45;;
20635;SDS011;10477;43.198;27.916;2022-09-02T05:33:47;33.42;;;30.62;;
20635;SDS011;10477;43.198;27.916;2022-09-02T05:37:01;36.98;;;34.03;;
20635;SDS011;10477;43.198;27.916;2022-09-02T05:38:50;34.13;;;31.33;;
20635;SDS011;10477;43.198;27.916;2022-09-02T05:41:19;32.70;;;30.10;;
20635;SDS011;10477;43.198;27.916;2022-09-02T05:43:49;32.38;;;29.67;;
20635;SDS011;10477;43.198;27.916;2022-09-02T05:46:22;32.70;;;30.10;;
20635;SDS011;10477;43.198;27.916;2022-09-02T05:48:52;33.28;;;30.62;;
20635;SDS011;10477;43.198;27.916;2022-09-02T05:51:48;32.53;;;29.92;;
20635;SDS011;10477;43.198;27.916;2022-09-02T05:54:19;36.50;;;33.65;;
20635;SDS011;10477;43.198;27.916;2022-09-02T05:56:50;34.53;;;31.50;;
20635;SDS011;10477;43.198;27.916;2022-09-02T05:59:22;32.42;;;29.82;;
20635;SDS011;10477;43.198;27.916;2022-09-02T06:01:51;32.70;;;30.00;;
20635;SDS011;10477;43.198;27.916;2022-09-02T06:04:20;30.60;;;27.95;;
20635;SDS011;10477;43.198;27.916;2022-09-02T06:06:49;31.55;;;28.75;;
20635;SDS011;10477;43.198;27.916;2022-09-02T06:09:19;32.93;;;30.23;;
20635;SDS011;10477;43.198;27.916;2022-09-02T06:11:48;33.33;;;30.62;;
20635;SDS011;10477;43.198;27.916;2022-09-02T06:14:18;39.25;;;36.15;;
20635;SDS011;10477;43.198;27.916;2022-09-02T06:16:49;30.70;;;28.05;;
20635;SDS011;10477;43.198;27.916;2022-09-02T06:19:19;38.28;;;35.08;;
20635;SDS011;10477;43.198;27.916;2022-09-02T06:21:49;31.02;;;28.42;;
20635;SDS011;10477;43.198;27.916;2022-09-02T06:24:19;31.50;;;28.80;;
20635;SDS011;10477;43.198;27.916;2022-09-02T06:26:48;32.53;;;29.82;;
20635;SDS011;10477;43.198;27.916;2022-09-02T06:29:21;29.23;;;26.73;;
20635;SDS011;10477;43.198;27.916;2022-09-02T06:31:49;29.05;;;26.62;;
20635;SDS011;10477;43.198;27.916;2022-09-02T06:34:18;32.10;;;29.50;;
20635;SDS011;10477;43.198;27.916;2022-09-02T06:36:48;31.35;;;28.75;;
20635;SDS011;10477;43.198;27.916;2022-09-02T06:39:17;28.65;;;26.15;;
20635;SDS011;10477;43.198;27.916;2022-09-02T06:41:47;28.90;;;26.40;;
20635;SDS011;10477;43.198;27.916;2022-09-02T06:44:16;31.85;;;29.02;;
20635;SDS011;10477;43.198;27.916;2022-09-02T06:46:47;32.85;;;30.17;;
20635;SDS011;10477;43.198;27.916;2022-09-02T06:49:16;29.02;;;26.52;;
20635;SDS011;10477;43.198;27.916;2022-09-02T06:51:44;30.80;;;28.15;;
20635;SDS011;10477;43.198;27.916;2022-09-02T06:54:15;31.60;;;28.90;;
20635;SDS011;10477;43.198;27.916;2022-09-02T06:56:46;31.50;;;28.55;;
20635;SDS011;10477;43.198;27.916;2022-09-02T06:59:21;34.83;;;31.40;;
20635;SDS011;10477;43.198;27.916;2022-09-02T07:01:46;35.30;;;32.17;;
20635;SDS011;10477;43.198;27.916;2022-09-02T07:04:14;38.42;;;35.40;;
20635;SDS011;10477;43.198;27.916;2022-09-02T07:07:02;35.78;;;32.78;;
20635;SDS011;10477;43.198;27.916;2022-09-02T07:09:32;32.73;;;29.92;;
20635;SDS011;10477;43.198;27.916;2022-09-02T07:12:01;32.35;;;29.52;;
20635;SDS011;10477;43.198;27.916;2022-09-02T07:14:29;36.60;;;33.42;;
20635;SDS011;10477;43.198;27.916;2022-09-02T07:16:57;35.10;;;32.10;;
20635;SDS011;10477;43.198;27.916;2022-09-02T07:19:25;37.53;;;34.33;;
20635;SDS011;10477;43.198;27.916;2022-09-02T07:21:55;33.25;;;30.35;;
20635;SDS011;10477;43.198;27.916;2022-09-02T07:24:23;32.60;;;29.75;;
20635;SDS011;10477;43.198;27.916;2022-09-02T07:26:52;32.38;;;29.52;;
20635;SDS011;10477;43.198;27.916;2022-09-02T07:29:20;31.87;;;29.10;;
20635;SDS011;10477;43.198;27.916;2022-09-02T07:31:48;32.78;;;29.87;;
20635;SDS011;10477;43.198;27.916;2022-09-02T07:34:16;35.43;;;31.97;;
20635;SDS011;10477;43.198;27.916;2022-09-02T07:36:45;28.25;;;25.75;;
20635;SDS011;10477;43.198;27.916;2022-09-02T07:39:13;30.00;;;27.10;;
20635;SDS011;10477;43.198;27.916;2022-09-02T07:41:43;32.63;;;29.45;;
20635;SDS011;10477;43.198;27.916;2022-09-02T07:44:13;40.05;;;28.32;;
20635;SDS011;10477;43.198;27.916;2022-09-02T07:46:42;30.15;;;27.45;;
20635;SDS011;10477;43.198;27.916;2022-09-02T07:49:10;30.20;;;27.40;;
20635;SDS011;10477;43.198;27.916;2022-09-02T07:51:41;32.63;;;29.60;;
20635;SDS011;10477;43.198;27.916;2022-09-02T07:54:11;38.98;;;28.15;;
20635;SDS011;10477;43.198;27.916;2022-09-02T07:56:39;32.67;;;29.77;;
20635;SDS011;10477;43.198;27.916;2022-09-02T07:59:08;33.18;;;28.90;;
20635;SDS011;10477;43.198;27.916;2022-09-02T08:01:36;40.63;;;37.25;;
20635;SDS011;10477;43.198;27.916;2022-09-02T08:04:04;41.42;;;33.28;;
20635;SDS011;10477;43.198;27.916;2022-09-02T08:06:32;31.85;;;28.83;;
20635;SDS011;10477;43.198;27.916;2022-09-02T08:09:06;32.13;;;29.25;;
20635;SDS011;10477;43.198;27.916;2022-09-02T08:11:36;35.63;;;32.25;;
20635;SDS011;10477;43.198;27.916;2022-09-02T08:14:09;29.52;;;27.02;;
20635;SDS011;10477;43.198;27.916;2022-09-02T08:16:39;30.65;;;27.93;;
20635;SDS011;10477;43.198;27.916;2022-09-02T08:19:07;33.25;;;30.10;;
20635;SDS011;10477;43.198;27.916;2022-09-02T08:21:36;32.20;;;29.30;;
20635;SDS011;10477;43.198;27.916;2022-09-02T08:24:04;35.30;;;32.42;;
20635;SDS011;10477;43.198;27.916;2022-09-02T08:26:32;34.73;;;31.68;;
20635;SDS011;10477;43.198;27.916;2022-09-02T08:29:02;36.68;;;33.48;;
20635;SDS011;10477;43.198;27.916;2022-09-02T08:31:31;33.25;;;30.32;;
20635;SDS011;10477;43.198;27.916;2022-09-02T08:34:00;30.57;;;27.77;;
20635;SDS011;10477;43.198;27.916;2022-09-02T08:36:34;32.80;;;30.00;;
20635;SDS011;10477;43.198;27.916;2022-09-02T08:39:21;30.90;;;28.23;;
20635;SDS011;10477;43.198;27.916;2022-09-02T08:42:08;33.53;;;30.68;;
20635;SDS011;10477;43.198;27.916;2022-09-02T08:44:35;34.67;;;31.82;;
20635;SDS011;10477;43.198;27.916;2022-09-02T08:49:53;37.30;;;34.25;;
20635;SDS011;10477;43.198;27.916;2022-09-02T08:52:37;33.20;;;30.00;;
20635;SDS011;10477;43.198;27.916;2022-09-02T08:55:06;33.20;;;30.40;;
20635;SDS011;10477;43.198;27.916;2022-09-02T08:57:36;31.15;;;28.35;;
20635;SDS011;10477;43.198;27.916;2022-09-02T09:00:06;31.15;;;28.45;;
20635;SDS011;10477;43.198;27.916;2022-09-02T09:02:55;33.55;;;30.23;;
20635;SDS011;10477;43.198;27.916;2022-09-02T09:10:58;31.68;;;28.98;;
20635;SDS011;10477;43.198;27.916;2022-09-02T09:13:43;30.40;;;27.70;;
20635;SDS011;10477;43.198;27.916;2022-09-02T09:16:27;37.80;;;34.60;;
20635;SDS011;10477;43.198;27.916;2022-09-02T09:19:22;34.83;;;31.97;;
20635;SDS011;10477;43.198;27.916;2022-09-02T09:22:01;35.08;;;32.08;;
20635;SDS011;10477;43.198;27.916;2022-09-02T09:24:34;33.98;;;31.07;;
20635;SDS011;10477;43.198;27.916;2022-09-02T09:27:03;35.20;;;32.35;;
20635;SDS011;10477;43.198;27.916;2022-09-02T09:29:33;34.43;;;31.50;;
20635;SDS011;10477;43.198;27.916;2022-09-02T09:32:01;31.70;;;28.80;;
20635;SDS011;10477;43.198;27.916;2022-09-02T09:37:30;32.55;;;29.50;;
20635;SDS011;10477;43.198;27.916;2022-09-02T09:39:59;33.60;;;30.80;;
20635;SDS011;10477;43.198;27.916;2022-09-02T09:42:34;35.28;;;32.13;;
20635;SDS011;10477;43.198;27.916;2022-09-02T09:45:49;29.65;;;26.95;;
20635;SDS011;10477;43.198;27.916;2022-09-02T09:47:38;32.03;;;29.23;;
20635;SDS011;10477;43.198;27.916;2022-09-02T09:50:12;34.80;;;31.40;;
20635;SDS011;10477;43.198;27.916;2022-09-02T09:52:38;33.05;;;30.10;;
20635;SDS011;10477;43.198;27.916;2022-09-02T09:55:13;22.30;;;20.40;;
20635;SDS011;10477;43.198;27.916;2022-09-02T09:58:06;35.28;;;32.28;;
20635;SDS011;10477;43.198;27.916;2022-09-02T10:00:30;32.28;;;29.37;;
20635;SDS011;10477;43.198;27.916;2022-09-02T10:02:59;35.63;;;32.13;;
20635;SDS011;10477;43.198;27.916;2022-09-02T10:05:37;34.05;;;31.12;;
20635;SDS011;10477;43.198;27.916;2022-09-02T10:10:59;35.03;;;32.03;;
20635;SDS011;10477;43.198;27.916;2022-09-02T10:13:24;31.97;;;29.25;;
20635;SDS011;10477;43.198;27.916;2022-09-02T10:16:04;28.75;;;26.25;;
20635;SDS011;10477;43.198;27.916;2022-09-02T10:21:22;30.45;;;27.95;;
20635;SDS011;10477;43.198;27.916;2022-09-02T10:26:53;35.05;;;32.33;;
20635;SDS011;10477;43.198;27.916;2022-09-02T10:29:29;31.42;;;28.67;;
20635;SDS011;10477;43.198;27.916;2022-09-02T10:34:42;31.33;;;28.55;;
20635;SDS011;10477;43.198;27.916;2022-09-02T10:37:17;30.40;;;27.90;;
20635;SDS011;10477;43.198;27.916;2022-09-02T10:42:37;31.85;;;28.85;;
20635;SDS011;10477;43.198;27.916;2022-09-02T10:48:18;30.08;;;27.48;;
20635;SDS011;10477;43.198;27.916;2022-09-02T10:56:20;40.33;;;31.40;;
20635;SDS011;10477;43.198;27.916;2022-09-02T10:58:58;33.88;;;30.75;;
20635;SDS011;10477;43.198;27.916;2022-09-02T11:01:27;32.08;;;28.83;;
20635;SDS011;10477;43.198;27.916;2022-09-02T11:06:50;33.30;;;30.02;;
20635;SDS011;10477;43.198;27.916;2022-09-02T11:09:25;33.08;;;30.23;;
20635;SDS011;10477;43.198;27.916;2022-09-02T11:12:13;30.55;;;27.85;;
20635;SDS011;10477;43.198;27.916;2022-09-02T11:22:48;37.42;;;34.27;;
20635;SDS011;10477;43.198;27.916;2022-09-02T11:25:24;35.60;;;32.35;;
20635;SDS011;10477;43.198;27.916;2022-09-02T11:28:12;42.50;;;39.10;;
20635;SDS011;10477;43.198;27.916;2022-09-02T11:30:44;40.43;;;36.20;;
20635;SDS011;10477;43.198;27.916;2022-09-02T11:33:20;57.78;;;38.63;;
20635;SDS011;10477;43.198;27.916;2022-09-02T11:35:51;76.65;;;38.05;;
20635;SDS011;10477;43.198;27.916;2022-09-02T11:46:48;36.93;;;33.50;;
20635;SDS011;10477;43.198;27.916;2022-09-02T11:57:49;56.42;;;38.55;;
20635;SDS011;10477;43.198;27.916;2022-09-02T12:03:29;40.63;;;35.50;;
20635;SDS011;10477;43.198;27.916;2022-09-02T12:06:07;47.62;;;42.10;;
20635;SDS011;10477;43.198;27.916;2022-09-02T12:11:36;37.33;;;34.03;;
20635;SDS011;10477;43.198;27.916;2022-09-02T12:17:00;36.10;;;33.10;;
20635;SDS011;10477;43.198;27.916;2022-09-02T12:24:50;35.25;;;32.25;;
20635;SDS011;10477;43.198;27.916;2022-09-02T12:27:31;38.42;;;34.92;;
20635;SDS011;10477;43.198;27.916;2022-09-02T12:30:09;37.90;;;34.50;;
20635;SDS011;10477;43.198;27.916;2022-09-02T12:36:02;38.83;;;35.63;;
20635;SDS011;10477;43.198;27.916;2022-09-02T12:40:56;36.85;;;33.55;;
20635;SDS011;10477;43.198;27.916;2022-09-02T12:49:25;37.67;;;33.67;;
20635;SDS011;10477;43.198;27.916;2022-09-02T13:10:26;31.68;;;28.98;;
20635;SDS011;10477;43.198;27.916;2022-09-02T13:32:01;30.23;;;28.12;;
20635;SDS011;10477;43.198;27.916;2022-09-02T13:38:33;32.25;;;30.05;;
20635;SDS011;10477;43.198;27.916;2022-09-02T13:41:30;33.18;;;30.70;;
20635;SDS011;10477;43.198;27.916;2022-09-02T13:44:19;28.77;;;26.68;;
20635;SDS011;10477;43.198;27.916;2022-09-02T13:46:45;30.15;;;27.85;;
20635;SDS011;10477;43.198;27.916;2022-09-02T13:49:22;33.83;;;31.33;;
20635;SDS011;10477;43.198;27.916;2022-09-02T13:51:55;35.10;;;31.75;;
20635;SDS011;10477;43.198;27.916;2022-09-02T13:54:33;35.75;;;32.95;;
20635;SDS011;10477;43.198;27.916;2022-09-02T13:57:06;32.58;;;30.17;;
20635;SDS011;10477;43.198;27.916;2022-09-02T13:59:39;39.80;;;36.70;;
20635;SDS011;10477;43.198;27.916;2022-09-02T14:04:55;34.03;;;31.52;;
20635;SDS011;10477;43.198;27.916;2022-09-02T14:07:27;34.98;;;32.35;;
20635;SDS011;10477;43.198;27.916;2022-09-02T14:10:06;35.20;;;32.30;;
20635;SDS011;10477;43.198;27.916;2022-09-02T14:12:37;40.92;;;37.38;;
20635;SDS011;10477;43.198;27.916;2022-09-02T14:15:07;35.15;;;32.42;;
20635;SDS011;10477;43.198;27.916;2022-09-02T14:17:37;42.65;;;39.20;;
20635;SDS011;10477;43.198;27.916;2022-09-02T14:20:14;38.98;;;35.52;;
20635;SDS011;10477;43.198;27.916;2022-09-02T14:22:42;37.30;;;34.25;;
20635;SDS011;10477;43.198;27.916;2022-09-02T14:25:12;40.25;;;37.25;;
20635;SDS011;10477;43.198;27.916;2022-09-02T14:27:48;45.60;;;42.27;;
20635;SDS011;10477;43.198;27.916;2022-09-02T14:35:58;46.88;;;43.38;;
20635;SDS011;10477;43.198;27.916;2022-09-02T14:38:38;37.93;;;35.13;;
20635;SDS011;10477;43.198;27.916;2022-09-02T14:41:34;45.63;;;42.38;;
20635;SDS011;10477;43.198;27.916;2022-09-02T14:43:47;37.08;;;34.00;;
20635;SDS011;10477;43.198;27.916;2022-09-02T14:48:50;42.38;;;39.20;;
20635;SDS011;10477;43.198;27.916;2022-09-02T14:51:42;39.33;;;36.42;;
20635;SDS011;10477;43.198;27.916;2022-09-02T14:57:06;38.92;;;36.13;;
20635;SDS011;10477;43.198;27.916;2022-09-02T15:00:07;44.88;;;41.58;;
20635;SDS011;10477;43.198;27.916;2022-09-02T15:02:40;59.27;;;55.03;;
20635;SDS011;10477;43.198;27.916;2022-09-02T15:05:12;42.27;;;39.10;;
20635;SDS011;10477;43.198;27.916;2022-09-02T15:07:41;36.33;;;33.55;;
20635;SDS011;10477;43.198;27.916;2022-09-02T15:10:10;44.23;;;40.83;;
20635;SDS011;10477;43.198;27.916;2022-09-02T15:12:41;37.88;;;35.00;;
20635;SDS011;10477;43.198;27.916;2022-09-02T15:15:10;38.70;;;35.25;;
20635;SDS011;10477;43.198;27.916;2022-09-02T15:20:05;40.15;;;37.15;;
20635;SDS011;10477;43.198;27.916;2022-09-02T15:22:33;42.20;;;39.10;;
20635;SDS011;10477;43.198;27.916;2022-09-02T15:25:05;46.23;;;43.03;;
20635;SDS011;10477;43.198;27.916;2022-09-02T15:27:33;41.80;;;38.70;;
20635;SDS011;10477;43.198;27.916;2022-09-02T15:30:03;44.50;;;40.65;;
20635;SDS011;10477;43.198;27.916;2022-09-02T15:32:34;38.08;;;35.20;;
20635;SDS011;10477;43.198;27.916;2022-09-02T15:35:06;47.73;;;43.95;;
20635;SDS011;10477;43.198;27.916;2022-09-02T15:37:34;80.53;;;74.80;;
20635;SDS011;10477;43.198;27.916;2022-09-02T15:40:03;50.45;;;46.68;;
20635;SDS011;10477;43.198;27.916;2022-09-02T15:42:37;39.95;;;36.63;;
20635;SDS011;10477;43.198;27.916;2022-09-02T15:45:02;43.65;;;40.15;;
20635;SDS011;10477;43.198;27.916;2022-09-02T15:47:34;45.98;;;42.33;;
20635;SDS011;10477;43.198;27.916;2022-09-02T15:50:04;43.33;;;39.92;;
20635;SDS011;10477;43.198;27.916;2022-09-02T15:52:33;46.63;;;43.13;;
20635;SDS011;10477;43.198;27.916;2022-09-02T15:55:01;41.75;;;38.35;;
20635;SDS011;10477;43.198;27.916;2022-09-02T15:57:29;43.68;;;40.28;;
20635;SDS011;10477;43.198;27.916;2022-09-02T15:59:57;51.02;;;47.30;;
20635;SDS011;10477;43.198;27.916;2022-09-02T16:02:25;46.00;;;42.45;;
20635;SDS011;10477;43.198;27.916;2022-09-02T16:04:52;82.00;;;76.20;;
20635;SDS011;10477;43.198;27.916;2022-09-02T16:07:21;44.80;;;41.02;;
20635;SDS011;10477;43.198;27.916;2022-09-02T16:09:48;47.73;;;44.23;;
20635;SDS011;10477;43.198;27.916;2022-09-02T16:12:16;51.05;;;47.17;;
20635;SDS011;10477;43.198;27.916;2022-09-02T16:14:43;47.98;;;44.15;;
20635;SDS011;10477;43.198;27.916;2022-09-02T16:17:13;44.33;;;40.92;;
20635;SDS011;10477;43.198;27.916;2022-09-02T16:19:41;42.45;;;39.15;;
20635;SDS011;10477;43.198;27.916;2022-09-02T16:22:09;89.50;;;83.25;;
20635;SDS011;10477;43.198;27.916;2022-09-02T16:24:36;41.50;;;38.20;;
20635;SDS011;10477;43.198;27.916;2022-09-02T16:32:15;46.58;;;42.88;;
20635;SDS011;10477;43.198;27.916;2022-09-02T16:34:43;45.33;;;42.05;;
20635;SDS011;10477;43.198;27.916;2022-09-02T16:37:11;50.98;;;47.27;;
20635;SDS011;10477;43.198;27.916;2022-09-02T16:39:39;42.00;;;38.75;;
20635;SDS011;10477;43.198;27.916;2022-09-02T16:42:06;44.50;;;41.15;;
20635;SDS011;10477;43.198;27.916;2022-09-02T16:44:35;42.75;;;39.55;;
20635;SDS011;10477;43.198;27.916;2022-09-02T16:47:03;43.33;;;40.03;;
20635;SDS011;10477;43.198;27.916;2022-09-02T16:49:31;42.88;;;39.48;;
20635;SDS011;10477;43.198;27.916;2022-09-02T16:51:59;51.45;;;47.58;;
20635;SDS011;10477;43.198;27.916;2022-09-02T16:54:27;57.75;;;53.35;;
20635;SDS011;10477;43.198;27.916;2022-09-02T16:56:55;44.08;;;40.67;;
20635;SDS011;10477;43.198;27.916;2022-09-02T16:59:22;43.60;;;40.38;;
20635;SDS011;10477;43.198;27.916;2022-09-02T17:01:50;48.35;;;44.27;;
20635;SDS011;10477;43.198;27.916;2022-09-02T17:04:18;48.23;;;44.53;;
20635;SDS011;10477;43.198;27.916;2022-09-02T17:06:46;51.37;;;47.62;;
20635;SDS011;10477;43.198;27.916;2022-09-02T17:09:13;50.78;;;46.68;;
20635;SDS011;10477;43.198;27.916;2022-09-02T17:11:41;52.98;;;49.03;;